Time;durP1;ratioP1;P1;durP2;ratioP2;P2;SDS_P1;SDS_P2;PMS_P1;PMS_P2;Temp;Humidity;BMP_temperature;BMP_pressure;BME280_temperature;BME280_humidity;BME280_pressure;Samples;Min_cycle;Max_cycle;Signal;HPM_P1;HPM_P2
2022/08/11 00:00:08;;;;;;;3.47;1.90;;;;;;;21.06;38.17;99942.75;343353;28;1751;-87
2022/08/11 00:00:37;;;;;;;2.35;2.00;;;;;;;21.06;38.17;99940.94;344762;28;1642;-86
2022/08/11 00:00:51;;;;;;;2.35;1.90;;;;;;;21.08;37.98;99936.41;342821;28;1649;-86
2022/08/11 00:01:10;;;;;;;2.30;1.85;;;;;;;21.07;37.62;99934.72;343014;28;1782;-87
2022/08/11 00:01:24;;;;;;;2.55;2.00;;;;;;;21.08;37.45;99940.84;342499;28;1622;-87
2022/08/11 00:01:52;;;;;;;4.10;2.03;;;;;;;21.04;37.81;99937.56;343664;28;1516;-87
2022/08/11 00:02:05;;;;;;;3.10;1.90;;;;;;;21.00;37.46;99941.41;345289;28;1746;-87
2022/08/11 00:02:35;;;;;;;3.90;1.90;;;;;;;20.92;38.12;99934.00;346009;28;1278;-86
2022/08/11 00:02:53;;;;;;;3.85;1.90;;;;;;;20.91;38.68;99936.78;343723;28;1820;-87
2022/08/11 00:03:10;;;;;;;3.47;2.00;;;;;;;20.85;38.33;99931.94;343446;28;1701;-87
2022/08/11 00:03:24;;;;;;;3.30;2.10;;;;;;;20.80;38.52;99939.31;344311;28;945;-87
2022/08/11 00:03:59;;;;;;;3.25;2.00;;;;;;;20.78;38.02;99935.94;343516;28;1207;-86
2022/08/11 00:04:15;;;;;;;2.92;1.90;;;;;;;20.77;38.11;99934.28;343660;28;1064;-87
2022/08/11 00:04:34;;;;;;;2.30;1.95;;;;;;;20.75;38.11;99937.84;344759;28;1956;-86
2022/08/11 00:04:48;;;;;;;2.13;1.92;;;;;;;20.75;37.95;99932.56;344727;28;1691;-86
2022/08/11 00:05:07;;;;;;;2.30;2.10;;;;;;;20.76;38.27;99941.34;344994;28;1304;-87
2022/08/11 00:05:20;;;;;;;2.50;2.00;;;;;;;20.75;38.64;99937.84;343266;28;1666;-86
2022/08/11 00:05:44;;;;;;;2.47;2.10;;;;;;;20.78;38.65;99925.38;343994;28;932;-87
2022/08/11 00:05:59;;;;;;;2.63;2.10;;;;;;;20.80;38.59;99940.16;344814;28;1722;-86
2022/08/11 00:06:21;;;;;;;2.63;1.80;;;;;;;20.80;38.49;99936.69;342357;28;1297;-86
2022/08/11 00:06:36;;;;;;;3.47;1.80;;;;;;;20.77;38.66;99934.28;342281;28;1845;-86
2022/08/11 00:06:54;;;;;;;4.85;2.10;;;;;;;20.73;38.58;99931.00;341282;28;1643;-87
2022/08/11 00:07:08;;;;;;;4.47;1.95;;;;;;;20.71;38.34;99935.53;341558;28;1022;-86
2022/08/11 00:07:23;;;;;;;2.70;1.80;;;;;;;20.65;38.47;99930.69;341833;28;1559;-87
2022/08/11 00:07:55;;;;;;;2.47;1.90;;;;;;;20.67;38.64;99934.91;343971;28;1718;-86
2022/08/11 00:08:10;;;;;;;2.80;2.15;;;;;;;20.71;38.47;99931.09;343645;28;1706;-85
2022/08/11 00:08:28;;;;;;;3.60;2.65;;;;;;;20.71;38.86;99931.09;345124;28;1450;-87
2022/08/11 00:08:42;;;;;;;4.20;2.47;;;;;;;20.71;38.39;99925.81;346179;28;1314;-86
2022/08/11 00:08:55;;;;;;;3.63;2.05;;;;;;;20.73;38.33;99931.84;345542;28;1477;-86
2022/08/11 00:09:14;;;;;;;4.30;2.17;;;;;;;20.69;38.52;99927.72;346058;28;1192;-87
2022/08/11 00:09:34;;;;;;;3.22;1.98;;;;;;;20.71;38.59;99936.38;346022;28;1667;-86
2022/08/11 00:09:54;;;;;;;2.60;1.90;;;;;;;20.74;38.85;99932.66;345735;28;1821;-87
2022/08/11 00:10:13;;;;;;;3.92;2.00;;;;;;;20.73;39.13;99931.84;345305;28;1025;-86
2022/08/11 00:10:27;;;;;;;2.88;1.85;;;;;;;20.74;38.94;99936.19;345635;28;1684;-87
2022/08/11 00:10:40;;;;;;;2.22;1.77;;;;;;;20.76;38.95;99933.41;347123;28;2119;-86
2022/08/11 00:11:10;;;;;;;3.30;1.90;;;;;;;20.75;38.73;99937.84;346603;28;777;-86
2022/08/11 00:11:34;;;;;;;4.43;2.10;;;;;;;20.69;38.50;99927.72;345717;28;1069;-87
2022/08/11 00:12:34;;;;;;;4.80;2.00;;;;;;;20.69;38.69;99929.53;344304;28;1538;-86
2022/08/11 00:13:00;;;;;;;3.30;2.10;;;;;;;20.56;38.86;99929.50;345208;28;1521;-86
2022/08/11 00:13:17;;;;;;;2.42;2.10;;;;;;;20.60;38.97;99932.81;346487;28;1675;-86
2022/08/11 00:13:39;;;;;;;2.10;1.90;;;;;;;20.56;39.18;99932.13;345087;28;1757;-86
2022/08/11 00:13:54;;;;;;;2.58;1.95;;;;;;;20.59;39.07;99929.31;346709;28;1541;-86
2022/08/11 00:14:24;;;;;;;2.92;2.10;;;;;;;20.62;38.92;99926.44;346993;28;1617;-87
2022/08/11 00:14:57;;;;;;;4.82;2.00;;;;;;;20.62;39.19;99930.91;345774;28;1663;-86
2022/08/11 00:15:11;;;;;;;3.05;2.05;;;;;;;20.62;39.09;99926.44;346147;28;1826;-86
2022/08/11 00:16:09;;;;;;;2.45;2.20;;;;;;;20.61;38.62;99934.50;346025;28;1665;-86
2022/08/11 00:16:24;;;;;;;2.15;1.95;;;;;;;20.60;39.09;99933.63;344713;28;1204;-86
2022/08/11 00:16:43;;;;;;;3.72;2.03;;;;;;;20.55;38.65;99931.28;346049;28;908;-87
2022/08/11 00:16:57;;;;;;;4.13;2.20;;;;;;;20.54;39.64;99934.91;346096;28;1562;-86
2022/08/11 00:17:14;;;;;;;3.95;1.98;;;;;;;20.55;39.34;99933.09;345374;28;1218;-85
2022/08/11 00:17:36;;;;;;;5.40;1.90;;;;;;;20.57;39.06;99928.56;346615;28;873;-86
2022/08/11 00:17:55;;;;;;;3.22;1.85;;;;;;;20.55;39.47;99931.28;345583;28;1561;-87
2022/08/11 00:18:08;;;;;;;3.63;1.90;;;;;;;20.59;39.15;99929.31;347527;28;941;-86
2022/08/11 00:18:25;;;;;;;4.30;1.98;;;;;;;20.59;39.33;99936.41;345456;28;1605;-86
2022/08/11 00:18:42;;;;;;;4.95;1.92;;;;;;;20.58;39.50;99930.22;344712;28;1842;-86
2022/08/11 00:18:57;;;;;;;3.95;1.90;;;;;;;20.58;39.39;99930.22;345423;28;1656;-86
2022/08/11 00:19:21;;;;;;;2.47;2.00;;;;;;;20.58;39.05;99930.22;345301;28;1883;-86
2022/08/11 00:20:07;;;;;;;5.07;2.00;;;;;;;20.61;38.63;99935.34;346144;28;1528;-87
2022/08/11 00:20:38;;;;;;;2.60;2.13;;;;;;;20.64;38.84;99935.13;345152;28;1093;-87
2022/08/11 00:21:06;;;;;;;3.67;2.00;;;;;;;20.66;38.41;99930.56;344120;28;1696;-86
2022/08/11 00:21:21;;;;;;;3.45;2.03;;;;;;;20.71;38.59;99936.38;344328;28;1460;-86
2022/08/11 00:21:54;;;;;;;3.25;2.00;;;;;;;20.71;38.21;99936.38;343968;28;1839;-86
2022/08/11 00:22:21;;;;;;;2.58;1.95;;;;;;;20.68;38.29;99936.59;344028;28;1119;-86
2022/08/11 00:22:41;;;;;;;3.20;1.90;;;;;;;20.66;39.01;99930.56;345707;28;1125;-86
2022/08/11 00:23:01;;;;;;;2.53;2.08;;;;;;;20.68;38.86;99926.03;345057;28;1718;-86
2022/08/11 00:23:18;;;;;;;5.05;2.00;;;;;;;20.66;39.17;99927.91;345090;28;1029;-87
2022/08/11 00:23:31;;;;;;;2.90;1.90;;;;;;;20.65;38.67;99935.97;346124;28;1435;-86
2022/08/11 00:23:48;;;;;;;2.72;1.80;;;;;;;20.65;38.59;99931.53;344396;28;1763;-86
2022/08/11 00:24:01;;;;;;;2.17;1.85;;;;;;;20.64;38.29;99935.13;345582;28;1113;-86
2022/08/11 00:24:17;;;;;;;2.90;2.00;;;;;;;20.59;38.43;99931.97;343914;28;1058;-86
2022/08/11 00:24:36;;;;;;;4.45;2.10;;;;;;;20.55;38.66;99933.09;343799;28;2107;-86
2022/08/11 00:25:15;;;;;;;3.05;2.22;;;;;;;20.46;38.54;99925.81;346739;28;1485;-86
2022/08/11 00:25:28;;;;;;;4.35;2.15;;;;;;;20.44;38.96;99927.72;347808;28;1913;-86
2022/08/11 00:25:47;;;;;;;4.05;2.10;;;;;;;20.48;39.22;99937.09;345939;28;1512;-87
2022/08/11 00:26:06;;;;;;;3.58;2.10;;;;;;;20.52;39.07;99930.66;344636;28;1340;-86
2022/08/11 00:26:18;;;;;;;3.60;2.28;;;;;;;20.54;39.55;99931.41;344935;28;1023;-87
2022/08/11 00:26:32;;;;;;;2.78;2.10;;;;;;;20.54;39.71;99934.91;344328;28;1787;-86
2022/08/11 00:26:51;;;;;;;3.47;2.10;;;;;;;20.54;39.56;99936.69;344418;28;1710;-86
2022/08/11 00:27:07;;;;;;;4.25;2.00;;;;;;;20.51;38.97;99927.19;342015;28;1413;-86
2022/08/11 00:27:35;;;;;;;3.75;1.90;;;;;;;20.51;39.28;99928.97;341739;28;1428;-86
2022/08/11 00:27:48;;;;;;;2.70;2.20;;;;;;;20.48;39.64;99930.06;342021;28;1728;-87
2022/08/11 00:28:03;;;;;;;2.40;2.20;;;;;;;20.47;39.52;99928.34;343725;28;1229;-86
2022/08/11 00:28:32;;;;;;;2.25;2.05;;;;;;;20.51;40.00;99934.25;343648;28;954;-87
2022/08/11 00:28:44;;;;;;;3.53;2.30;;;;;;;20.52;39.35;99935.94;345370;28;1598;-86
2022/08/11 00:29:09;;;;;;;4.35;2.00;;;;;;;20.51;38.81;99928.97;345785;28;1665;-86
2022/08/11 00:29:22;;;;;;;3.58;2.20;;;;;;;20.51;38.87;99939.53;345855;28;1834;-87
2022/08/11 00:29:54;;;;;;;2.50;2.30;;;;;;;20.50;39.81;99935.19;342478;28;1325;-86
2022/08/11 00:30:08;;;;;;;2.15;1.92;;;;;;;20.45;39.16;99935.53;345630;28;1598;-86
2022/08/11 00:30:23;;;;;;;2.13;1.92;;;;;;;20.49;39.34;99936.16;344905;28;1235;-87
2022/08/11 00:30:39;;;;;;;3.90;2.00;;;;;;;20.49;39.35;99933.53;343996;28;1460;-86
2022/08/11 00:30:53;;;;;;;4.10;2.05;;;;;;;20.51;39.27;99935.09;344243;28;1668;-86
2022/08/11 00:31:18;;;;;;;2.88;2.00;;;;;;;20.54;38.57;99937.53;344525;28;1847;-87
2022/08/11 00:31:33;;;;;;;3.45;2.40;;;;;;;20.58;38.57;99934.66;344778;28;1182;-86
2022/08/11 00:31:51;;;;;;;3.17;2.25;;;;;;;20.58;38.20;99937.31;345984;28;1608;-86
2022/08/11 00:32:12;;;;;;;3.10;2.00;;;;;;;20.57;38.44;99944.41;346474;28;1312;-86
2022/08/11 00:32:28;;;;;;;4.43;2.00;;;;;;;20.55;38.65;99935.75;345018;28;1834;-86
2022/08/11 00:32:43;;;;;;;3.63;2.00;;;;;;;20.54;38.78;99939.31;347316;28;854;-86
2022/08/11 00:32:58;;;;;;;2.97;2.20;;;;;;;20.57;38.52;99943.56;347067;28;1815;-86
2022/08/11 00:33:10;;;;;;;4.25;2.10;;;;;;;20.59;38.58;99941.69;345912;28;1153;-86
2022/08/11 00:33:33;;;;;;;3.55;1.98;;;;;;;20.55;39.02;99941.03;344283;28;1687;-86
2022/08/11 00:33:58;;;;;;;4.03;2.00;;;;;;;20.50;39.14;99943.13;343873;28;1607;-85
2022/08/11 00:34:18;;;;;;;4.95;2.05;;;;;;;20.47;39.12;99938.06;343785;28;1868;-86
2022/08/11 00:34:34;;;;;;;4.32;2.08;;;;;;;20.49;39.41;99941.44;343791;28;1760;-87
2022/08/11 00:34:47;;;;;;;4.35;1.92;;;;;;;20.48;39.42;99942.38;342342;28;1798;-86
2022/08/11 00:35:01;;;;;;;3.33;1.80;;;;;;;20.45;39.89;99939.97;343074;28;1314;-86
2022/08/11 00:35:34;;;;;;;4.22;2.10;;;;;;;20.48;39.86;99939.75;345421;28;1806;-86
2022/08/11 00:36:08;;;;;;;2.20;2.00;;;;;;;20.48;39.49;99935.34;345006;28;1558;-86
2022/08/11 00:36:29;;;;;;;2.72;2.00;;;;;;;20.35;38.90;99939.75;343732;28;789;-86
2022/08/11 00:37:05;;;;;;;2.75;1.85;;;;;;;20.31;38.94;99933.84;345004;28;1262;-86
2022/08/11 00:37:20;;;;;;;5.93;1.97;;;;;;;20.32;39.47;99939.94;345022;28;1054;-86
2022/08/11 00:37:33;;;;;;;4.55;2.10;;;;;;;20.30;39.41;99941.84;345847;28;1744;-86
2022/08/11 00:37:51;;;;;;;2.90;2.17;;;;;;;20.26;39.32;99935.09;347542;28;993;-86
2022/08/11 00:38:06;;;;;;;2.88;2.15;;;;;;;20.25;40.03;99944.81;346992;28;1073;-87
2022/08/11 00:38:26;;;;;;;2.63;2.42;;;;;;;20.22;39.51;99939.75;347068;28;1190;-86
2022/08/11 00:38:40;;;;;;;3.90;2.35;;;;;;;20.22;39.21;99934.47;346404;28;1704;-86
2022/08/11 00:39:01;;;;;;;3.50;2.00;;;;;;;20.22;39.19;99938.91;346831;28;1721;-86
2022/08/11 00:39:15;;;;;;;2.40;2.10;;;;;;;20.15;39.19;99944.59;345857;28;1763;-86
2022/08/11 00:39:31;;;;;;;2.67;2.10;;;;;;;20.05;39.20;99945.31;344637;28;1486;-86
2022/08/11 00:39:48;;;;;;;3.05;2.17;;;;;;;19.80;39.40;99944.34;343293;28;1039;-86
2022/08/11 00:40:09;;;;;;;2.60;2.03;;;;;;;19.72;39.75;99944.84;342892;28;1447;-87
2022/08/11 00:40:43;;;;;;;4.55;2.10;;;;;;;19.83;40.32;99943.28;344885;28;1212;-86
2022/08/11 00:41:16;;;;;;;5.40;2.28;;;;;;;19.93;39.76;99949.63;343981;28;2012;-86
2022/08/11 00:41:40;;;;;;;3.60;2.00;;;;;;;19.99;39.68;99945.75;344955;28;1564;-86
2022/08/11 00:42:16;;;;;;;2.97;2.00;;;;;;;20.03;40.37;99944.59;345482;28;989;-86
2022/08/11 00:42:55;;;;;;;2.72;2.10;;;;;;;20.07;40.86;99940.78;345259;28;856;-86
2022/08/11 00:43:33;;;;;;;2.35;2.10;;;;;;;20.09;40.58;99941.53;347097;28;1127;-86
2022/08/11 00:44:28;;;;;;;2.00;1.80;;;;;;;19.71;40.83;99940.50;346333;28;951;-87
2022/08/11 00:45:03;;;;;;;3.90;2.20;;;;;;;19.86;40.40;99936.00;341632;28;1203;-86
2022/08/11 00:45:19;;;;;;;4.57;2.33;;;;;;;19.96;40.47;99944.16;342237;28;990;-86
2022/08/11 00:45:38;;;;;;;3.50;2.38;;;;;;;19.95;40.26;99943.28;343246;28;1032;-87
2022/08/11 00:46:09;;;;;;;2.58;2.10;;;;;;;19.98;40.40;99937.00;340510;28;1668;-86
2022/08/11 00:46:39;;;;;;;2.50;2.08;;;;;;;20.01;40.33;99938.56;339487;28;1513;-86
2022/08/11 00:47:23;;;;;;;3.15;2.13;;;;;;;20.00;40.13;99948.28;340245;29;1625;-86
2022/08/11 00:47:45;;;;;;;2.30;2.00;;;;;;;19.98;40.21;99946.69;344956;28;1228;-87
2022/08/11 00:47:57;;;;;;;3.50;2.05;;;;;;;20.00;39.77;99939.50;345382;28;1320;-87
2022/08/11 00:48:47;;;;;;;4.55;2.10;;;;;;;19.98;39.92;99941.41;346505;28;880;-86
2022/08/11 00:49:26;;;;;;;3.92;2.10;;;;;;;20.03;40.23;99944.59;345681;28;1219;-86
2022/08/11 00:50:16;;;;;;;2.60;2.10;;;;;;;20.02;40.33;99949.03;347360;28;1273;-86
2022/08/11 00:50:44;;;;;;;3.80;2.10;;;;;;;19.97;40.01;99939.72;346333;28;994;-87
2022/08/11 00:51:13;;;;;;;4.75;2.72;;;;;;;19.92;39.99;99943.50;346018;28;1241;-86
2022/08/11 00:51:52;;;;;;;4.57;2.15;;;;;;;19.73;40.70;99940.41;344553;28;847;-86
2022/08/11 00:52:46;;;;;;;3.42;2.13;;;;;;;19.82;40.46;99945.09;342346;28;1135;-86
2022/08/11 00:53:07;;;;;;;3.00;2.22;;;;;;;19.87;40.87;99936.84;345561;28;1434;-86
2022/08/11 00:53:44;;;;;;;3.30;2.17;;;;;;;19.89;40.09;99940.22;345927;28;981;-86
2022/08/11 00:54:18;;;;;;;3.00;1.90;;;;;;;19.70;40.11;99943.22;345025;28;1090;-86
2022/08/11 00:54:54;;;;;;;2.25;2.05;;;;;;;19.47;40.81;99942.91;345527;28;1449;-86
2022/08/11 00:55:24;;;;;;;6.15;2.30;;;;;;;19.54;40.69;99938.94;345715;28;1726;-86
2022/08/11 00:56:16;;;;;;;4.20;2.30;;;;;;;19.66;40.70;99936.44;345811;28;1027;-86
2022/08/11 00:56:56;;;;;;;3.92;2.08;;;;;;;19.70;40.94;99938.78;345843;28;848;-86
2022/08/11 00:57:28;;;;;;;2.95;2.00;;;;;;;19.82;41.20;99939.81;346633;28;1611;-86
2022/08/11 00:58:13;;;;;;;3.28;2.10;;;;;;;19.68;41.55;99935.41;344826;28;1662;-87
2022/08/11 00:58:51;;;;;;;3.65;2.20;;;;;;;19.66;41.29;99942.56;345149;28;977;-86
2022/08/11 00:59:36;;;;;;;3.05;1.90;;;;;;;19.66;41.59;99942.56;346089;28;1417;-87
2022/08/11 01:00:25;;;;;;;3.25;2.10;;;;;;;19.71;41.49;99942.28;344902;28;1795;-86
2022/08/11 01:01:01;;;;;;;3.85;2.25;;;;;;;19.71;41.01;99934.38;345126;28;933;-86
2022/08/11 01:01:16;;;;;;;2.55;2.30;;;;;;;19.74;41.25;99945.59;345745;28;1486;-87
2022/08/11 01:01:45;;;;;;;4.05;2.17;;;;;;;19.78;41.20;99940.09;345353;28;1209;-87
2022/08/11 01:02:17;;;;;;;2.53;2.10;;;;;;;19.82;41.03;99937.16;343698;28;1372;-86
2022/08/11 01:02:43;;;;;;;2.30;2.05;;;;;;;19.77;41.67;99941.88;343370;28;1671;-86
2022/08/11 01:03:17;;;;;;;4.78;2.33;;;;;;;19.72;41.18;99941.38;341890;28;1250;-86
2022/08/11 01:03:54;;;;;;;2.80;2.35;;;;;;;19.81;40.88;99942.53;343356;28;1059;-86
2022/08/11 01:04:16;;;;;;;5.03;2.35;;;;;;;19.86;40.61;99938.66;342112;28;1914;-86
2022/08/11 01:05:12;;;;;;;5.23;2.60;;;;;;;19.89;40.46;99927.88;344285;28;1626;-86
2022/08/11 01:05:24;;;;;;;3.47;2.10;;;;;;;19.91;40.23;99936.53;346223;28;1061;-87
2022/08/11 01:06:03;;;;;;;3.80;2.30;;;;;;;19.87;41.04;99937.69;344602;28;1634;-85
2022/08/11 01:06:24;;;;;;;3.40;2.40;;;;;;;19.82;40.49;99937.16;344087;28;1701;-86
2022/08/11 01:06:56;;;;;;;3.00;2.33;;;;;;;19.81;40.63;99930.19;343616;28;1047;-86
2022/08/11 01:07:32;;;;;;;3.72;2.38;;;;;;;19.78;41.12;99940.97;342432;28;1382;-86
2022/08/11 01:08:52;;;;;;;3.70;2.10;;;;;;;19.77;41.28;99939.25;344720;28;1472;-86
2022/08/11 01:09:41;;;;;;;3.10;2.20;;;;;;;19.79;40.58;99942.63;342652;28;1564;-86
2022/08/11 01:10:30;;;;;;;3.20;2.40;;;;;;;19.78;41.10;99940.09;342386;28;866;-87
2022/08/11 01:11:15;;;;;;;4.40;2.30;;;;;;;19.75;41.79;99935.88;342479;28;1176;-86
2022/08/11 01:11:50;;;;;;;3.17;2.38;;;;;;;19.72;41.69;99936.94;341569;28;1195;-87
2022/08/11 01:12:57;;;;;;;2.85;2.38;;;;;;;19.74;41.52;99945.59;346255;28;1029;-86
2022/08/11 01:13:55;;;;;;;5.80;2.40;;;;;;;19.71;41.35;99937.03;344793;28;1169;-87
2022/08/11 01:14:23;;;;;;;5.57;2.40;;;;;;;19.72;41.61;99941.38;346876;28;1041;-86
2022/08/11 01:15:19;;;;;;;4.13;2.40;;;;;;;19.77;41.37;99933.97;345938;28;1914;-86
2022/08/11 01:16:04;;;;;;;5.75;2.45;;;;;;;19.79;41.19;99941.78;344637;28;1074;-86
2022/08/11 01:16:41;;;;;;;5.50;2.35;;;;;;;19.73;40.83;99937.75;344555;28;1187;-87
2022/08/11 01:17:27;;;;;;;2.92;2.20;;;;;;;19.67;41.35;99938.13;345377;28;1852;-86
2022/08/11 01:17:51;;;;;;;2.30;2.10;;;;;;;19.68;41.64;99937.19;344652;28;1027;-87
2022/08/11 01:18:30;;;;;;;2.50;2.30;;;;;;;19.66;41.73;99939.06;344285;28;1364;-86
2022/08/11 01:19:07;;;;;;;2.97;2.30;;;;;;;19.67;41.66;99938.97;343299;28;1421;-86
2022/08/11 01:20:06;;;;;;;2.70;2.30;;;;;;;19.67;41.54;99932.88;342198;28;1982;-86
2022/08/11 01:21:16;;;;;;;4.47;2.10;;;;;;;19.67;41.52;99940.78;343982;28;1393;-86
2022/08/11 01:21:53;;;;;;;2.30;2.10;;;;;;;19.67;42.08;99938.13;343700;28;1547;-86
2022/08/11 01:22:40;;;;;;;3.33;2.28;;;;;;;19.66;42.06;99945.22;345219;28;1628;-87
2022/08/11 01:23:02;;;;;;;3.88;1.90;;;;;;;19.68;41.21;99934.53;344686;28;1596;-86
2022/08/11 01:23:47;;;;;;;4.57;2.10;;;;;;;19.68;41.17;99937.19;345809;28;1198;-86
2022/08/11 01:24:24;;;;;;;3.28;2.00;;;;;;;19.73;41.58;99937.75;347090;28;1410;-86
2022/08/11 01:24:44;;;;;;;4.95;2.42;;;;;;;19.73;41.90;99938.59;347804;28;1738;-86
2022/08/11 01:25:17;;;;;;;3.42;2.33;;;;;;;19.67;41.51;99938.97;346867;28;1479;-86
2022/08/11 01:25:53;;;;;;;2.95;2.28;;;;;;;19.70;41.34;99937.94;346560;28;924;-87
2022/08/11 01:26:34;;;;;;;3.75;2.50;;;;;;;19.67;41.46;99936.34;346248;28;1672;-87
2022/08/11 01:27:12;;;;;;;3.70;2.10;;;;;;;19.71;41.52;99940.50;346918;28;2020;-86
2022/08/11 01:27:47;;;;;;;6.53;2.47;;;;;;;19.69;41.58;99933.59;346356;28;1728;-86
2022/08/11 01:28:07;;;;;;;4.25;2.15;;;;;;;19.69;41.66;99937.09;346231;28;1061;-86
2022/08/11 01:28:41;;;;;;;4.45;2.20;;;;;;;19.70;41.73;99935.31;344947;28;933;-86
2022/08/11 01:29:01;;;;;;;3.47;2.08;;;;;;;19.71;41.96;99942.28;346504;28;1859;-87
2022/08/11 01:29:54;;;;;;;4.30;2.25;;;;;;;19.72;41.85;99939.56;346815;28;1149;-87
2022/08/11 01:30:19;;;;;;;3.80;2.25;;;;;;;19.77;42.04;99941.88;347832;28;1508;-86
2022/08/11 01:30:38;;;;;;;4.28;2.22;;;;;;;19.79;41.82;99940.00;346312;28;1027;-86
2022/08/11 01:31:34;;;;;;;3.88;2.17;;;;;;;19.81;42.26;99945.19;345426;28;1592;-87
2022/08/11 01:32:03;;;;;;;3.50;2.38;;;;;;;19.81;41.66;99938.09;345050;28;941;-86
2022/08/11 01:32:36;;;;;;;3.45;2.28;;;;;;;19.84;41.85;99937.91;344480;28;1164;-86
2022/08/11 01:33:29;;;;;;;2.50;2.30;;;;;;;19.85;41.46;99942.22;345303;28;1226;-86
2022/08/11 01:34:01;;;;;;;3.30;2.20;;;;;;;19.87;41.73;99950.88;345015;28;975;-86
2022/08/11 01:34:25;;;;;;;2.97;2.08;;;;;;;19.89;41.36;99950.78;346869;28;1373;-86
2022/08/11 01:35:18;;;;;;;3.83;2.20;;;;;;;19.90;41.27;99945.41;346386;28;956;-86
2022/08/11 01:35:40;;;;;;;3.72;2.42;;;;;;;19.92;40.90;99938.25;345236;28;864;-87
2022/08/11 01:36:13;;;;;;;3.10;2.38;;;;;;;19.93;40.72;99937.28;344839;28;1022;-86
2022/08/11 01:37:01;;;;;;;3.67;2.40;;;;;;;19.90;40.73;99939.28;344650;28;860;-86
2022/08/11 01:37:52;;;;;;;4.30;2.38;;;;;;;19.91;41.27;99941.81;342438;28;851;-86
2022/08/11 01:38:32;;;;;;;2.58;2.20;;;;;;;19.93;41.18;99939.06;346162;28;1150;-86
2022/08/11 01:38:57;;;;;;;3.40;2.22;;;;;;;19.97;41.11;99942.38;344811;28;1274;-87
2022/08/11 01:39:12;;;;;;;4.13;2.10;;;;;;;19.95;40.97;99945.09;345660;28;1722;-86
2022/08/11 01:39:51;;;;;;;3.95;2.25;;;;;;;19.89;40.78;99938.44;345096;28;1017;-87
2022/08/11 01:40:16;;;;;;;3.58;2.40;;;;;;;19.95;40.94;99945.94;345726;28;1340;-86
2022/08/11 01:41:07;;;;;;;5.82;2.20;;;;;;;19.98;41.18;99941.41;344875;28;971;-86
2022/08/11 01:44:36;;;;;;;3.50;2.30;;;;;;;20.00;40.94;99944.78;344333;28;1146;-87
2022/08/11 01:44:51;;;;;;;4.82;2.30;;;;;;;20.10;40.80;99945.84;346443;28;873;-86
2022/08/11 01:45:58;;;;;;;4.45;2.20;;;;;;;20.15;40.84;99941.13;345955;28;1195;-86
2022/08/11 01:46:19;;;;;;;3.03;2.13;;;;;;;20.15;40.92;99947.22;344786;28;1783;-86
2022/08/11 01:46:38;;;;;;;2.47;2.10;;;;;;;20.17;40.67;99944.50;342171;28;1616;-87
2022/08/11 01:47:49;;;;;;;3.70;2.03;;;;;;;20.18;40.82;99946.16;345423;28;1715;-86
2022/08/11 01:48:06;;;;;;;3.03;1.95;;;;;;;20.18;40.50;99951.44;345171;28;1175;-87
2022/08/11 01:48:36;;;;;;;3.28;2.17;;;;;;;20.20;40.73;99946.06;345104;28;1811;-87
2022/08/11 01:49:03;;;;;;;2.80;2.00;;;;;;;20.19;40.45;99944.41;345389;28;1259;-86
2022/08/11 01:49:55;;;;;;;3.25;2.10;;;;;;;20.16;39.92;99940.16;346804;28;1369;-86
2022/08/11 01:50:35;;;;;;;4.35;2.20;;;;;;;20.21;39.98;99942.50;346687;28;848;-86
2022/08/11 01:51:16;;;;;;;2.83;2.10;;;;;;;20.21;40.52;99938.06;345118;28;1183;-87
2022/08/11 01:52:01;;;;;;;3.25;2.00;;;;;;;20.26;40.71;99932.44;343010;28;1094;-86
2022/08/11 01:52:23;;;;;;;3.47;2.22;;;;;;;20.28;40.45;99930.56;342276;28;1070;-86
2022/08/11 01:52:48;;;;;;;3.75;2.00;;;;;;;20.30;40.74;99945.38;344195;28;1176;-87
2022/08/11 01:53:25;;;;;;;3.13;2.20;;;;;;;20.30;40.80;99931.28;344184;28;868;-86
2022/08/11 01:53:38;;;;;;;2.20;2.00;;;;;;;20.34;40.84;99938.91;344610;28;1563;-87
2022/08/11 01:54:19;;;;;;;2.90;2.10;;;;;;;20.34;40.20;99935.41;343367;28;1576;-87
2022/08/11 01:55:02;;;;;;;5.63;2.25;;;;;;;20.38;40.23;99943.97;344809;28;1169;-87
2022/08/11 01:55:25;;;;;;;4.28;2.20;;;;;;;20.40;40.48;99936.78;345334;28;1700;-86
2022/08/11 01:56:08;;;;;;;2.50;2.15;;;;;;;20.40;39.99;99935.00;344862;28;1693;-85
2022/08/11 01:56:50;;;;;;;4.40;2.20;;;;;;;20.38;40.48;99938.69;346572;28;1790;-86
2022/08/11 01:57:25;;;;;;;3.20;2.22;;;;;;;20.39;40.29;99935.13;345985;28;1082;-86
2022/08/11 01:57:56;;;;;;;2.55;2.08;;;;;;;20.41;40.15;99933.22;346003;28;1554;-86
2022/08/11 01:58:28;;;;;;;2.80;2.03;;;;;;;20.43;39.72;99941.88;347464;28;863;-86
2022/08/11 01:59:13;;;;;;;2.20;2.00;;;;;;;20.44;39.88;99933.00;345161;28;1748;-86
2022/08/11 01:59:38;;;;;;;2.88;2.00;;;;;;;20.42;39.72;99942.81;345080;28;1063;-87
2022/08/11 01:59:55;;;;;;;4.85;2.28;;;;;;;20.28;40.00;99936.69;343739;28;989;-86
2022/08/11 02:00:15;;;;;;;6.13;2.15;;;;;;;20.29;39.94;99941.03;344071;28;1737;-86
2022/08/11 02:00:34;;;;;;;4.55;2.20;;;;;;;20.34;39.59;99941.56;343967;28;1547;-86
2022/08/11 02:01:06;;;;;;;6.18;2.20;;;;;;;20.35;40.42;99935.31;346473;28;1474;-86
2022/08/11 02:01:41;;;;;;;3.10;2.13;;;;;;;20.37;39.83;99939.66;345002;28;1693;-86
2022/08/11 02:02:10;;;;;;;6.00;2.15;;;;;;;20.37;39.59;99937.03;344580;28;1530;-86
2022/08/11 02:02:52;;;;;;;3.42;2.25;;;;;;;20.29;39.94;99941.03;345471;28;1820;-86
2022/08/11 02:03:43;;;;;;;4.78;2.20;;;;;;;20.34;40.04;99938.06;346493;28;1784;-86
2022/08/11 02:04:13;;;;;;;3.90;2.10;;;;;;;20.39;39.79;99940.41;340366;28;1634;-86
2022/08/11 02:04:34;;;;;;;2.85;2.25;;;;;;;20.38;40.03;99936.06;341069;29;1722;-87
2022/08/11 02:05:01;;;;;;;2.50;2.30;;;;;;;20.28;40.35;99934.06;341001;29;1584;-87
2022/08/11 02:05:44;;;;;;;2.50;2.17;;;;;;;20.27;40.16;99935.00;345664;28;1698;-86
2022/08/11 02:07:27;;;;;;;3.90;2.08;;;;;;;20.31;39.93;99935.63;345650;28;1483;-86
2022/08/11 02:08:01;;;;;;;3.90;2.00;;;;;;;20.34;39.92;99938.06;345495;28;851;-87
2022/08/11 02:08:33;;;;;;;2.30;2.10;;;;;;;20.36;40.17;99936.16;344905;28;1088;-87
2022/08/11 02:09:09;;;;;;;2.30;2.10;;;;;;;20.37;40.09;99937.84;345202;28;1761;-86
2022/08/11 02:09:43;;;;;;;2.78;2.30;;;;;;;20.38;40.12;99933.41;342305;28;1590;-87
2022/08/11 02:11:31;;;;;;;2.97;2.05;;;;;;;20.42;39.76;99934.88;347865;28;1071;-87
2022/08/11 02:11:51;;;;;;;4.18;2.00;;;;;;;20.41;39.90;99941.97;346964;28;1229;-86
2022/08/11 02:12:25;;;;;;;3.53;2.20;;;;;;;20.39;40.39;99943.88;347066;28;1132;-86
2022/08/11 02:12:45;;;;;;;3.85;2.10;;;;;;;20.41;39.88;99943.78;345991;28;1162;-86
2022/08/11 02:13:49;;;;;;;4.82;2.22;;;;;;;20.41;39.83;99943.78;345030;28;1799;-87
2022/08/11 02:14:23;;;;;;;5.03;2.20;;;;;;;20.40;40.24;99942.06;344495;28;1784;-87
2022/08/11 02:15:02;;;;;;;2.88;2.00;;;;;;;20.44;39.70;99943.56;344948;28;1568;-86
2022/08/11 02:15:25;;;;;;;2.33;2.13;;;;;;;20.45;39.24;99945.25;346635;28;1010;-87
2022/08/11 02:15:44;;;;;;;2.38;2.10;;;;;;;20.42;39.26;99941.00;347649;28;1254;-86
2022/08/11 02:16:09;;;;;;;3.10;2.20;;;;;;;20.42;39.12;99937.53;346653;28;1865;-87
2022/08/11 02:16:46;;;;;;;3.92;2.10;;;;;;;20.40;39.39;99937.63;346297;28;1563;-87
2022/08/11 02:16:58;;;;;;;4.65;2.28;;;;;;;20.42;39.46;99940.16;344591;28;1951;-87
2022/08/11 02:17:21;;;;;;;5.32;2.30;;;;;;;20.43;39.56;99936.59;343458;28;1693;-86
2022/08/11 02:17:44;;;;;;;2.90;2.20;;;;;;;20.43;39.71;99936.59;342761;28;1130;-87
2022/08/11 02:24:21;;;;;;;4.63;2.42;;;;;;;20.19;40.52;99945.22;345841;28;1526;-86
2022/08/11 02:24:48;;;;;;;3.22;2.30;;;;;;;20.21;40.31;99935.41;346308;28;1780;-86
2022/08/11 02:25:24;;;;;;;2.83;2.20;;;;;;;20.19;40.08;99928.56;345655;28;1204;-86
2022/08/11 02:26:13;;;;;;;4.10;2.30;;;;;;;20.14;41.04;99937.63;346770;28;1136;-86
2022/08/11 02:26:40;;;;;;;2.45;2.08;;;;;;;20.16;40.25;99940.16;345278;28;1444;-86
2022/08/11 02:27:44;;;;;;;2.83;2.20;;;;;;;20.13;40.10;99938.56;345336;28;1552;-86
2022/08/11 02:28:16;;;;;;;5.22;2.13;;;;;;;20.08;39.94;99938.06;342680;28;1594;-86
2022/08/11 02:28:48;;;;;;;3.88;2.20;;;;;;;20.02;40.82;99937.59;343967;28;869;-86
2022/08/11 02:29:28;;;;;;;2.97;2.30;;;;;;;20.00;41.11;99935.09;343104;28;1750;-86
2022/08/11 02:30:03;;;;;;;3.33;2.15;;;;;;;20.02;40.88;99932.31;343968;28;1090;-86
2022/08/11 02:30:24;;;;;;;2.30;2.08;;;;;;;19.95;40.77;99931.91;342939;28;1094;-86
2022/08/11 02:33:21;;;;;;;3.28;2.22;;;;;;;19.94;40.78;99928.44;345876;28;1075;-87
2022/08/11 02:33:36;;;;;;;3.85;2.25;;;;;;;19.89;40.89;99932.31;340285;29;1933;-86